.
WxDataArchive / Data Records for 2006-09-08
2006-09-07 September 2006 2006-09-09

Data Records for Friday, 08 September 2006

Time	Temp	Chill	HIndex	Humid	Dewpt	 Wind 	HiWind	WindDir	Rain 	Barom 
-----	----	-----	------	-----	-----	------	------	-------	-----	----- 
00:00	61.3	61.3	61.3	88	57.7	0	0	---	0.00	29.970 
00:05	61.3	61.3	61.3	88	57.7	0	0	---	0.00	29.970 
00:10	61.3	61.3	61.3	88	57.7	0	0	---	0.00	29.970 
00:15	61.3	61.3	61.3	88	57.7	0	0	---	0.00	29.966 
00:20	61.3	61.3	61.3	87	57.4	0	0	---	0.00	29.966 
00:25	61.3	61.3	61.3	87	57.4	0	0	---	0.00	29.966 
00:30	61.3	61.3	61.3	87	57.4	0	0	---	0.00	29.967 
00:35	61.6	61.6	61.6	86	57.4	0	1	270	0.00	29.967 
00:40	61.8	61.8	61.8	85	57.2	0	0	---	0.00	29.967 
00:45	62.1	62.1	62.1	84	57.2	0	1	270	0.00	29.968 
00:50	62.3	62.3	62.3	84	57.4	0	0	---	0.00	29.968 
00:55	62.4	62.4	62.4	83	57.2	0	0	---	0.00	29.968 
01:00	62.4	62.4	62.4	83	57.2	0	0	---	0.00	29.968 
01:05	62.4	62.4	62.4	83	57.2	0	0	---	0.00	29.968 
01:10	62.3	62.3	62.3	83	57.1	0	0	---	0.00	29.968 
01:15	62.3	62.3	62.3	83	57.1	0	0	---	0.00	29.968 
01:20	62.1	62.1	62.1	84	57.2	0	0	---	0.00	29.968 
01:25	62.0	62.0	62.0	84	57.1	0	0	---	0.00	29.968 
01:30	61.8	61.8	61.8	84	56.9	0	0	---	0.00	29.967 
01:35	61.8	61.8	61.8	84	56.9	0	0	---	0.00	29.967 
01:40	61.6	61.6	61.6	84	56.7	0	0	---	0.00	29.967 
01:45	61.5	61.5	61.5	85	56.9	0	0	---	0.00	29.968 
01:50	61.3	61.3	61.3	85	56.7	0	0	---	0.00	29.968 
01:55	61.3	61.3	61.3	85	56.7	0	0	---	0.00	29.968 
02:00	61.2	61.2	61.2	85	56.6	0	0	---	0.00	29.971 
02:05	61.0	61.0	61.0	86	56.8	0	0	---	0.00	29.971 
02:10	60.9	60.9	60.9	86	56.7	0	0	---	0.00	29.971 
02:15	60.9	60.9	60.9	86	56.7	0	0	---	0.00	29.971 
02:20	60.7	60.7	60.7	86	56.5	0	0	---	0.00	29.971 
02:25	60.5	60.5	60.5	86	56.3	0	0	---	0.00	29.971 
02:30	60.4	60.4	60.4	87	56.5	0	0	---	0.00	29.972 
02:35	60.2	60.2	60.2	87	56.3	0	0	---	0.00	29.972 
02:40	60.2	60.2	60.2	88	56.6	0	0	---	0.00	29.972 
02:45	60.1	60.1	60.1	88	56.5	0	0	---	0.00	29.972 
02:50	59.9	59.9	59.9	88	56.3	0	0	---	0.00	29.972 
02:55	59.9	59.9	59.9	88	56.3	0	0	---	0.00	29.972 
03:00	59.8	59.8	59.8	88	56.2	0	0	---	0.00	29.973 
03:05	59.8	59.8	59.8	89	56.5	0	0	---	0.00	29.973 
03:10	59.6	59.6	59.6	89	56.4	0	0	---	0.00	29.973 
03:15	59.5	59.5	59.5	90	56.6	0	0	---	0.00	29.978 
03:20	59.5	59.5	59.5	90	56.6	0	0	---	0.00	29.978 
03:25	59.5	59.5	59.5	90	56.6	0	0	---	0.00	29.978 
03:30	59.3	59.3	59.3	90	56.4	0	0	---	0.00	29.978 
03:35	59.3	59.3	59.3	90	56.4	0	0	---	0.00	29.978 
03:40	59.3	59.3	59.3	90	56.4	0	0	---	0.00	29.978 
03:45	59.3	59.3	59.3	91	56.7	0	0	---	0.00	29.978 
03:50	59.3	59.3	59.3	91	56.7	0	0	---	0.00	29.978 
03:55	59.3	59.3	59.3	91	56.7	0	0	---	0.00	29.978 
04:00	59.5	59.5	59.5	91	56.9	0	1	270	0.00	29.978 
04:05	59.6	59.6	59.6	90	56.7	0	1	270	0.00	29.978 
04:10	59.9	59.9	59.9	90	57.0	0	1	270	0.00	29.978 
04:15	60.1	60.1	60.1	89	56.8	0	1	270	0.00	29.977 
04:20	60.2	60.2	60.2	89	56.9	0	1	270	0.00	29.977 
04:25	60.4	60.4	60.4	88	56.8	0	2	270	0.00	29.977 
04:30	60.5	60.5	60.5	88	56.9	0	1	270	0.00	29.976 
04:35	60.7	60.7	60.7	88	57.1	0	1	270	0.00	29.976 
04:40	60.7	60.7	60.7	88	57.1	0	1	270	0.00	29.976 
04:45	60.5	60.5	60.5	88	56.9	0	0	---	0.00	29.975 
04:50	60.5	60.5	60.5	88	56.9	0	0	---	0.00	29.975 
04:55	60.4	60.4	60.4	88	56.8	0	0	---	0.00	29.975 
05:00	60.4	60.4	60.4	88	56.8	0	0	---	0.00	29.977 
05:05	60.1	60.1	60.1	88	56.5	0	0	---	0.00	29.977 
05:10	60.1	60.1	60.1	89	56.8	0	0	---	0.00	29.977 
05:15	59.9	59.9	59.9	89	56.6	0	0	---	0.00	29.977 
05:20	59.8	59.8	59.8	89	56.5	0	0	---	0.00	29.977 
05:25	59.6	59.6	59.6	89	56.4	0	0	---	0.00	29.977 
05:30	59.6	59.6	59.6	90	56.7	0	0	---	0.00	29.978 
05:35	59.5	59.5	59.5	90	56.6	0	0	---	0.00	29.978 
05:40	59.3	59.3	59.3	90	56.4	0	0	---	0.00	29.978 
05:45	59.2	59.2	59.2	90	56.3	0	0	---	0.00	29.978 
05:50	59.0	59.0	59.0	91	56.4	0	0	---	0.00	29.978 
05:55	58.9	58.9	58.9	91	56.3	0	0	---	0.00	29.978 
06:00	58.7	58.7	58.7	92	56.4	0	0	---	0.00	29.980 
06:05	58.7	58.7	58.7	92	56.4	0	0	---	0.00	29.980 
06:10	58.6	58.6	58.6	92	56.3	0	0	---	0.00	29.980 
06:15	58.4	58.4	58.4	92	56.1	0	0	---	0.00	29.986 
06:20	58.3	58.3	58.3	92	56.0	0	0	---	0.00	29.986 
06:25	58.3	58.3	58.3	92	56.0	0	0	---	0.00	29.986 
06:30	58.1	58.1	58.1	93	56.1	0	0	---	0.00	29.990 
06:35	58.0	58.0	58.0	93	56.0	0	0	---	0.00	29.990 
06:40	57.8	57.8	57.8	93	55.8	0	0	---	0.00	29.990 
06:45	57.6	57.6	57.6	93	55.6	0	0	---	0.00	29.992 
06:50	57.6	57.6	57.6	93	55.6	0	0	---	0.00	29.992 
06:55	57.5	57.5	57.5	93	55.5	0	0	---	0.00	29.992 
07:00	57.5	57.5	57.5	94	55.8	0	0	---	0.00	29.990 
07:05	57.5	57.5	57.5	94	55.8	0	0	---	0.00	29.990 
07:10	57.5	57.5	57.5	94	55.8	0	1	270	0.00	29.990 
07:15	57.8	57.8	57.8	95	56.4	0	0	---	0.00	29.996 
07:20	58.0	58.0	58.0	95	56.6	0	0	---	0.00	29.996 
07:25	58.1	58.1	58.1	95	56.7	0	0	---	0.00	29.996 
07:30	58.3	58.3	58.3	95	56.9	0	1	270	0.00	29.997 
07:35	58.4	58.4	58.4	95	57.0	0	1	270	0.00	29.997 
07:40	58.6	58.6	58.6	94	56.9	0	0	---	0.00	29.997 
07:45	58.6	58.6	58.6	94	56.9	0	0	---	0.00	29.999 
07:50	58.7	58.7	58.7	94	57.0	0	0	---	0.00	29.999 
07:55	58.9	58.9	58.9	93	56.9	0	1	270	0.00	29.999 
08:00	59.0	59.0	59.0	93	57.0	0	0	---	0.00	30.001 
08:05	59.3	59.3	59.3	93	57.3	0	1	270	0.00	30.001 
08:10	59.6	59.6	59.6	92	57.3	0	1	270	0.00	30.001 
08:15	59.9	59.9	59.9	91	57.3	0	1	270	0.00	30.009 
08:20	60.4	60.4	60.4	90	57.4	0	2	270	0.00	30.009 
08:25	60.9	60.9	60.9	88	57.3	1	3	270	0.00	30.009 
08:30	61.5	61.5	61.5	87	57.6	0	3	270	0.00	30.015 
08:35	62.0	62.0	62.0	85	57.4	0	2	270	0.00	30.015 
08:40	62.4	62.4	62.4	85	57.8	1	2	248	0.00	30.015 
08:45	62.9	62.9	62.9	84	58.0	1	3	248	0.00	30.016 
08:50	63.2	63.2	63.2	83	57.9	0	1	248	0.00	30.016 
08:55	63.7	63.7	63.7	83	58.4	0	1	248	0.00	30.016 
09:00	64.2	64.2	64.2	82	58.6	0	3	248	0.00	30.016 
09:05	64.7	64.7	64.7	80	58.4	1	2	248	0.00	30.016 
09:10	65.0	65.0	65.0	79	58.3	0	3	248	0.00	30.016 
09:15	65.6	65.6	65.6	78	58.5	1	2	248	0.00	30.018 
09:20	66.0	66.0	66.0	76	58.2	1	4	248	0.00	30.018 
09:25	66.6	66.6	66.6	75	58.4	1	3	248	0.00	30.018 
09:30	67.1	67.1	67.1	76	59.3	0	3	248	0.00	30.019 
09:35	67.6	67.6	67.6	74	59.0	1	2	248	0.00	30.019 
09:40	68.1	68.1	68.1	73	59.1	1	4	248	0.00	30.019 
09:45	68.6	68.6	68.6	71	58.8	1	4	248	0.00	30.020 
09:50	68.9	68.9	68.9	70	58.7	2	6	248	0.00	30.020 
09:55	69.6	69.6	69.6	69	59.0	2	4	248	0.00	30.020 
10:00	70.1	70.1	70.1	69	59.4	1	3	248	0.00	30.024 
10:05	70.6	70.6	70.6	66	58.7	2	6	248	0.00	30.024 
10:10	71.1	71.1	71.1	66	59.2	2	4	248	0.00	30.024 
10:15	71.6	71.6	71.6	65	59.2	1	5	248	0.00	30.028 
10:20	72.1	72.1	72.1	65	59.7	2	6	248	0.00	30.028 
10:25	72.3	72.3	72.3	64	59.4	2	4	248	0.00	30.028 
10:30	72.7	72.7	72.7	63	59.4	2	5	248	0.00	30.026 
10:35	73.0	73.0	73.0	66	61.0	1	4	270	0.00	30.026 
10:40	73.3	73.3	73.3	64	60.4	2	5	248	0.00	30.026 
10:45	73.5	73.5	73.5	64	60.6	2	5	270	0.00	30.024 
10:50	73.9	73.9	73.9	65	61.4	1	3	270	0.00	30.024 
10:55	74.4	74.4	74.4	63	61.0	1	3	248	0.00	30.024 
11:00	74.7	74.7	74.7	60	59.9	1	4	248	0.00	30.022 
11:05	74.9	74.9	74.9	61	60.5	2	4	248	0.00	30.022 
11:10	75.3	75.3	77.6	59	60.0	2	4	292	0.00	30.022 
11:15	75.8	75.8	77.9	60	60.9	1	3	292	0.00	30.024 
11:20	76.1	76.1	78.1	60	61.2	2	5	248	0.00	30.024 
11:25	76.1	76.1	78.1	58	60.2	2	6	248	0.00	30.024 
11:30	75.8	75.8	77.9	59	60.4	2	6	270	0.00	30.025 
11:35	75.4	75.4	77.6	60	60.5	2	5	248	0.00	30.025 
11:40	75.4	75.4	77.5	62	61.5	0	2	248	0.00	30.025 
11:45	75.6	75.6	77.7	61	61.2	2	5	248	0.00	30.025 
11:50	76.3	76.3	78.2	63	62.8	1	3	248	0.00	30.025 
11:55	76.7	76.7	78.5	61	62.2	1	3	248	0.00	30.025 
12:00	76.8	76.8	78.6	57	60.4	1	4	248	0.00	30.022 
12:05	77.2	77.2	78.9	57	60.8	2	4	248	0.00	30.022 
12:10	77.4	77.4	79.1	57	61.0	2	6	248	0.00	30.022 
12:15	77.6	77.6	79.3	59	62.1	1	4	270	0.00	30.020 
12:20	77.9	77.9	79.5	59	62.4	2	4	248	0.00	30.020 
12:25	78.1	78.1	79.6	57	61.6	1	5	270	0.00	30.020 
12:30	78.3	78.3	79.7	55	60.8	2	5	248	0.00	30.016 
12:35	78.1	78.1	79.6	56	61.1	3	6	270	0.00	30.016 
12:40	78.6	78.6	80.1	57	62.1	1	4	270	0.00	30.016 
12:45	78.6	78.6	80.0	55	61.1	2	5	270	0.00	30.009 
12:50	78.5	78.5	79.9	55	61.0	3	6	248	0.00	30.009 
12:55	78.5	78.5	80.0	58	62.5	2	4	248	0.00	30.009 
13:00	79.0	79.0	80.5	57	62.4	2	4	270	0.00	30.007 
13:05	79.2	79.2	80.4	53	60.6	3	7	248	0.00	30.007 
13:10	79.6	79.6	80.9	55	62.0	1	3	338	0.00	30.007 
13:15	80.3	80.3	81.5	54	62.1	1	3	270	0.00	30.000 
13:20	80.3	80.3	81.6	55	62.6	2	3	292	0.00	30.000 
13:25	80.5	80.5	81.7	54	62.3	2	5	90	0.00	30.000 
13:30	80.5	80.5	81.5	52	61.2	2	5	248	0.00	29.992 
13:35	80.7	80.7	81.7	52	61.4	2	4	270	0.00	29.992 
13:40	80.7	80.7	81.6	51	60.9	3	10	270	0.00	29.992 
13:45	80.5	80.5	81.6	53	61.8	2	6	248	0.00	29.990 
13:50	80.5	80.5	81.6	53	61.8	2	5	248	0.00	29.990 
13:55	80.5	80.5	81.7	54	62.3	1	4	270	0.00	29.990 
14:00	80.9	80.9	81.9	52	61.6	1	3	270	0.00	29.981 
14:05	80.7	80.7	81.6	51	60.9	2	5	248	0.00	29.981 
14:10	80.9	80.9	81.6	50	60.5	2	4	248	0.00	29.981 
14:15	81.1	81.1	82.1	52	61.8	2	5	248	0.00	29.978 
14:20	81.2	81.2	81.8	49	60.2	3	8	270	0.00	29.978 
14:25	81.4	81.4	82.3	51	61.5	2	4	248	0.00	29.978 
14:30	81.2	81.2	81.9	50	60.8	2	6	270	0.00	29.979 
14:35	81.4	81.4	82.1	50	60.9	2	5	270	0.00	29.979 
14:40	81.2	81.2	81.7	48	59.6	2	5	270	0.00	29.979 
14:45	81.2	81.2	81.9	50	60.8	2	4	315	0.00	29.977 
14:50	81.8	81.8	82.7	51	61.9	2	7	270	0.00	29.977 
14:55	81.6	81.6	82.1	48	60.0	2	8	270	0.00	29.977 
15:00	81.1	81.1	81.8	50	60.7	2	4	270	0.00	29.975 
15:05	81.1	81.1	81.5	47	58.9	2	4	270	0.00	29.975 
15:10	81.4	81.4	82.1	50	60.9	1	3	248	0.00	29.975 
15:15	82.2	82.2	82.5	47	59.9	2	4	270	0.00	29.968 
15:20	82.0	82.0	82.1	45	58.5	2	4	270	0.00	29.968 
15:25	81.2	81.2	81.7	48	59.6	1	2	270	0.00	29.968 
15:30	80.9	80.9	81.3	47	58.8	2	4	248	0.00	29.971 
15:35	81.6	81.6	82.6	52	62.2	1	3	248	0.00	29.971 
15:40	82.4	82.4	82.3	44	58.3	2	6	248	0.00	29.971 
15:45	82.4	82.4	82.3	44	58.3	2	5	292	0.00	29.962 
15:50	81.8	81.8	82.1	47	59.6	1	4	292	0.00	29.962 
15:55	81.8	81.8	81.8	44	57.7	2	4	270	0.00	29.962 
16:00	81.4	81.4	81.5	45	58.0	3	6	270	0.00	29.960 
16:05	80.9	80.9	81.3	47	58.8	1	2	270	0.00	29.960 
16:10	80.7	80.7	81.0	46	58.0	1	3	270	0.00	29.960 
16:15	80.7	80.7	81.0	46	58.0	1	3	248	0.00	29.959 
16:20	80.5	80.5	80.8	46	57.8	1	3	292	0.00	29.959 
16:25	80.1	80.1	80.8	49	59.2	1	2	292	0.00	29.959 
16:30	80.3	80.3	81.0	49	59.4	0	3	292	0.00	29.951 
16:35	80.7	80.7	81.0	46	58.0	1	3	292	0.00	29.951 
16:40	81.1	81.1	81.5	47	58.9	1	3	248	0.00	29.951 
16:45	81.4	81.4	81.4	44	57.4	2	5	270	0.00	29.948 
16:50	81.4	81.4	81.5	45	58.0	2	4	270	0.00	29.948 
16:55	81.4	81.4	81.9	48	59.8	2	4	248	0.00	29.948 
17:00	81.8	81.8	82.1	47	59.6	1	4	248	0.00	29.947 
17:05	82.0	82.0	81.8	43	57.3	2	4	270	0.00	29.947 
17:10	82.2	82.2	82.1	44	58.1	2	3	248	0.00	29.947 
17:15	81.4	81.4	81.3	43	56.7	2	4	248	0.00	29.947 
17:20	80.7	80.7	80.9	45	57.4	2	4	270	0.00	29.947 
17:25	80.7	80.7	80.9	45	57.4	1	3	270	0.00	29.947 
17:30	80.9	80.9	81.4	48	59.3	1	3	270	0.00	29.946 
17:35	80.9	80.9	81.1	45	57.5	1	3	248	0.00	29.946 
17:40	80.3	80.3	80.7	46	57.6	1	4	248	0.00	29.946 
17:45	80.3	80.3	80.8	47	58.2	1	3	248	0.00	29.948 
17:50	80.7	80.7	81.2	48	59.2	1	3	248	0.00	29.948 
17:55	80.7	80.7	81.1	47	58.6	2	4	270	0.00	29.948 
18:00	80.3	80.3	80.7	46	57.6	2	5	270	0.00	29.945 
18:05	79.9	79.9	80.4	46	57.2	2	5	248	0.00	29.945 
18:10	80.1	80.1	80.5	46	57.4	2	5	248	0.00	29.945 
18:15	80.1	80.1	80.7	48	58.6	1	4	248	0.00	29.947 
18:20	79.9	79.9	80.5	48	58.4	0	2	248	0.00	29.947 
18:25	79.9	79.9	80.6	49	59.0	1	2	248	0.00	29.947 
18:30	79.8	79.8	80.5	48	58.3	1	2	248	0.00	29.947 
18:35	79.8	79.8	80.6	50	59.5	1	3	248	0.00	29.947 
18:40	79.6	79.6	80.4	49	58.7	1	4	225	0.00	29.947 
18:45	79.4	79.4	80.1	48	58.0	1	3	270	0.00	29.948 
18:50	79.2	79.2	80.1	49	58.4	1	3	270	0.00	29.948 
18:55	79.2	79.2	80.1	50	58.9	1	2	248	0.00	29.948 
19:00	79.0	79.0	80.0	51	59.3	1	4	270	0.00	29.948 
19:05	78.6	78.6	79.7	50	58.4	1	3	248	0.00	29.948 
19:10	78.5	78.5	79.6	51	58.8	0	2	248	0.00	29.948 
19:15	78.3	78.3	79.5	51	58.7	1	2	248	0.00	29.945 
19:20	78.1	78.1	79.4	51	58.5	1	3	248	0.00	29.945 
19:25	77.9	77.9	79.3	53	59.4	0	2	248	0.00	29.945 
19:30	77.6	77.6	79.1	54	59.6	0	1	248	0.00	29.941 
19:35	77.2	77.2	78.8	54	59.2	0	1	248	0.00	29.941 
19:40	76.8	76.8	78.6	54	58.9	0	2	248	0.00	29.941 
19:45	76.7	76.7	78.5	55	59.3	0	1	248	0.00	29.939 
19:50	76.3	76.3	78.3	56	59.4	0	1	248	0.00	29.939 
19:55	76.0	76.0	78.1	57	59.6	0	1	248	0.00	29.939 
20:00	75.4	75.4	77.7	58	59.6	0	1	248	0.00	29.940 
20:05	75.1	75.1	77.5	59	59.8	0	1	248	0.00	29.940 
20:10	74.7	74.7	74.7	60	59.9	0	1	248	0.00	29.940 
20:15	74.4	74.4	74.4	61	60.1	0	1	248	0.00	29.938 
20:20	74.0	74.0	74.0	62	60.1	0	0	---	0.00	29.938 
20:25	73.7	73.7	73.7	62	59.9	0	1	248	0.00	29.938 
20:30	73.5	73.5	73.5	63	60.1	0	1	248	0.00	29.943 
20:35	73.3	73.3	73.3	63	59.9	0	0	---	0.00	29.943 
20:40	73.0	73.0	73.0	64	60.1	0	0	---	0.00	29.943 
20:45	72.7	72.7	72.7	65	60.2	0	0	---	0.00	29.948 
20:50	72.1	72.1	72.1	66	60.1	0	0	---	0.00	29.948 
20:55	71.8	71.8	71.8	66	59.8	0	0	---	0.00	29.948 
21:00	71.5	71.5	71.5	68	60.4	0	0	---	0.00	29.951 
21:05	71.1	71.1	71.1	68	60.0	0	0	---	0.00	29.951 
21:10	70.8	70.8	70.8	69	60.1	0	0	---	0.00	29.951 
21:15	70.4	70.4	70.4	70	60.1	0	0	---	0.00	29.953 
21:20	70.1	70.1	70.1	71	60.2	0	0	---	0.00	29.953 
21:25	69.8	69.8	69.8	72	60.4	0	0	---	0.00	29.953 
21:30	69.4	69.4	69.4	73	60.4	0	1	248	0.00	29.962 
21:35	69.4	69.4	69.4	73	60.4	0	1	248	0.00	29.962 
21:40	69.3	69.3	69.3	73	60.3	0	0	---	0.00	29.962 
21:45	69.3	69.3	69.3	73	60.3	0	0	---	0.00	29.965 
21:50	69.1	69.1	69.1	73	60.1	0	1	248	0.00	29.965 
21:55	69.4	69.4	69.4	73	60.4	0	1	248	0.00	29.965 
22:00	69.6	69.6	69.6	73	60.6	0	1	248	0.00	29.968 
22:05	69.4	69.4	69.4	73	60.4	0	1	248	0.00	29.968 
22:10	69.3	69.3	69.3	73	60.3	0	0	---	0.00	29.968 
22:15	69.3	69.3	69.3	74	60.6	0	1	248	0.00	29.968 
22:20	69.3	69.3	69.3	73	60.3	0	2	248	0.00	29.968 
22:25	69.3	69.3	69.3	73	60.3	0	1	248	0.00	29.968 
22:30	69.3	69.3	69.3	73	60.3	0	1	248	0.00	29.970 
22:35	69.4	69.4	69.4	73	60.4	0	2	248	0.00	29.970 
22:40	69.6	69.6	69.6	73	60.6	0	2	248	0.00	29.970 
22:45	69.4	69.4	69.4	73	60.4	0	1	248	0.00	29.970 
22:50	69.4	69.4	69.4	73	60.4	0	1	248	0.00	29.970 
22:55	69.3	69.3	69.3	73	60.3	0	1	248	0.00	29.970 
23:00	69.4	69.4	69.4	73	60.4	0	2	248	0.00	29.968 
23:05	69.3	69.3	69.3	73	60.3	0	1	248	0.00	29.968 
23:10	69.3	69.3	69.3	73	60.3	0	2	248	0.00	29.968 
23:15	69.1	69.1	69.1	73	60.1	0	2	248	0.00	29.969 
23:20	69.3	69.3	69.3	73	60.3	0	2	248	0.00	29.969 
23:25	69.3	69.3	69.3	72	59.9	1	3	248	0.00	29.969 
23:30	69.1	69.1	69.1	72	59.7	0	1	248	0.00	29.971 
23:35	69.1	69.1	69.1	73	60.1	0	2	248	0.00	29.971 
23:40	68.9	68.9	68.9	73	59.9	0	2	248	0.00	29.971 
23:45	68.9	68.9	68.9	73	59.9	1	2	248	0.00	29.972 
23:50	68.9	68.9	68.9	73	59.9	1	2	248	0.00	29.972 
23:55	68.9	68.9	68.9	73	59.9	1	4	248	0.00	29.972 

CoCoRaHS
IN-AL-39
A2 Web Hosting
Creative Commons License
GoDaddy
Look for:

loaded 2017-12-11 14:15:50 • last modified 2010-11-18 10:43:29
Privacy PolicyDisclaimer
• wx.awcolley.com is powered by PmWiki v.2002016 •
• all content (unless otherwise noted) © 2017 A W Colley